createdAt,value
2022-10-26T00:00:27.381Z,12.45
2022-10-26T00:03:29.415Z,12.61
2022-10-26T00:06:36.474Z,12.74
2022-10-26T00:09:38.519Z,12.67
2022-10-26T00:12:40.667Z,12.54
2022-10-26T00:15:42.906Z,12.59
2022-10-26T00:18:45.087Z,12.57
2022-10-26T00:21:47.179Z,12.49
2022-10-26T00:24:49.340Z,12.56
2022-10-26T00:27:51.612Z,12.50
2022-10-26T00:30:54.027Z,12.60
2022-10-26T00:33:56.423Z,12.58
2022-10-26T00:36:58.579Z,12.49
2022-10-26T00:40:00.679Z,12.51
2022-10-26T00:43:02.799Z,12.55
2022-10-26T00:46:07.606Z,12.48
2022-10-26T00:49:14.181Z,12.60
2022-10-26T00:52:16.318Z,12.42
2022-10-26T00:55:21.471Z,12.46
2022-10-26T00:58:23.617Z,12.58
2022-10-26T01:01:25.813Z,12.43
2022-10-26T01:04:27.874Z,12.39
2022-10-26T01:07:29.962Z,12.31
2022-10-26T01:10:32.063Z,12.34
2022-10-26T01:13:35.906Z,12.30
2022-10-26T01:16:57.500Z,12.14
2022-10-26T01:20:21.069Z,12.21
2022-10-26T01:23:28.700Z,12.11
2022-10-26T01:27:01.710Z,12.32
2022-10-26T01:30:31.450Z,12.25
2022-10-26T01:33:47.002Z,12.08
2022-10-26T01:36:56.328Z,12.28
2022-10-26T01:40:06.417Z,12.28
2022-10-26T01:43:09.629Z,12.13
2022-10-26T01:46:12.038Z,12.18
2022-10-26T01:49:15.498Z,12.14
2022-10-26T01:52:19.553Z,12.24
2022-10-26T01:55:52.394Z,12.37
2022-10-26T01:59:16.222Z,12.27
2022-10-26T02:02:52.827Z,12.34
2022-10-26T02:06:17.292Z,12.44
2022-10-26T02:09:45.258Z,12.22
2022-10-26T02:13:32.671Z,12.21
2022-10-26T02:16:58.152Z,12.14
2022-10-26T02:20:05.840Z,12.21
2022-10-26T02:23:07.890Z,12.58
2022-10-26T02:26:10.694Z,12.32
2022-10-26T02:29:18.011Z,12.20
2022-10-26T02:32:20.346Z,12.29
2022-10-26T02:35:31.001Z,12.32
2022-10-26T02:38:33.036Z,12.32
2022-10-26T02:41:35.085Z,12.24
2022-10-26T02:44:50.338Z,12.58
2022-10-26T02:47:52.652Z,12.37
2022-10-26T02:51:10.345Z,12.43
2022-10-26T02:54:56.942Z,12.46
2022-10-26T02:58:01.909Z,12.41
2022-10-26T03:01:04.087Z,12.37
2022-10-26T03:04:06.219Z,12.26
2022-10-26T03:07:09.484Z,12.31
2022-10-26T03:10:11.761Z,12.34
2022-10-26T03:13:13.934Z,12.40
2022-10-26T03:16:15.964Z,12.47
2022-10-26T03:19:18.017Z,12.59
2022-10-26T03:22:20.062Z,12.59
2022-10-26T03:25:22.087Z,12.84
2022-10-26T03:28:24.155Z,12.69
2022-10-26T03:31:26.209Z,12.53
2022-10-26T03:34:28.256Z,12.72
2022-10-26T03:37:30.283Z,12.56
2022-10-26T03:40:32.362Z,12.61
2022-10-26T03:43:34.471Z,12.69
2022-10-26T03:46:36.507Z,12.65
2022-10-26T03:49:38.531Z,12.54
2022-10-26T03:52:40.869Z,12.57
2022-10-26T03:55:45.823Z,12.69
2022-10-26T03:58:47.847Z,12.67
2022-10-26T04:01:52.745Z,12.60
2022-10-26T04:04:57.414Z,12.55
2022-10-26T04:08:00.691Z,12.60
2022-10-26T04:11:04.609Z,12.54
2022-10-26T04:14:06.953Z,12.59
2022-10-26T04:17:08.992Z,12.74
2022-10-26T04:20:11.287Z,12.71
2022-10-26T04:23:15.243Z,12.70
2022-10-26T04:26:17.349Z,12.74
2022-10-26T04:29:19.375Z,12.73
2022-10-26T04:32:21.518Z,12.65
2022-10-26T04:35:23.558Z,12.77
2022-10-26T04:38:25.622Z,12.61
2022-10-26T04:41:27.669Z,12.63
2022-10-26T04:44:29.705Z,12.80
2022-10-26T04:47:32.271Z,13.07
2022-10-26T04:50:34.723Z,12.83
2022-10-26T04:53:38.366Z,12.53
2022-10-26T04:56:40.574Z,12.76
2022-10-26T04:59:42.680Z,12.82
2022-10-26T05:02:44.729Z,12.64
2022-10-26T05:05:47.867Z,12.82
2022-10-26T05:08:49.973Z,12.58
2022-10-26T05:11:51.997Z,12.66
2022-10-26T05:14:59.001Z,12.74
2022-10-26T05:18:03.529Z,12.72
2022-10-26T05:21:05.758Z,12.71
2022-10-26T05:24:10.184Z,12.63
2022-10-26T05:27:14.479Z,12.84
2022-10-26T05:30:16.704Z,12.98
2022-10-26T05:33:18.805Z,12.72
2022-10-26T05:36:20.999Z,12.63
2022-10-26T05:39:23.070Z,12.72
2022-10-26T05:42:25.536Z,12.78
2022-10-26T05:45:27.955Z,12.91
2022-10-26T05:48:30.030Z,12.97
2022-10-26T05:51:34.559Z,12.90
2022-10-26T05:54:36.727Z,12.97
2022-10-26T05:57:39.348Z,12.94
2022-10-26T06:01:08.001Z,12.98
2022-10-26T06:04:22.642Z,12.98
2022-10-26T06:07:25.178Z,12.93
2022-10-26T06:10:28.114Z,12.79
2022-10-26T06:13:30.895Z,12.89
2022-10-26T06:16:42.860Z,12.95
2022-10-26T06:19:57.357Z,12.89
2022-10-26T06:23:19.241Z,13.12
2022-10-26T06:26:52.551Z,12.98
2022-10-26T06:30:14.833Z,12.97
2022-10-26T06:33:28.520Z,13.10
2022-10-26T06:36:31.820Z,13.19
2022-10-26T06:39:37.497Z,13.16
2022-10-26T06:42:39.853Z,13.21
2022-10-26T06:45:41.928Z,13.13
2022-10-26T06:49:22.254Z,13.37
2022-10-26T06:52:38.776Z,13.21
2022-10-26T06:55:45.210Z,13.43
2022-10-26T06:58:47.353Z,13.37
2022-10-26T07:01:49.458Z,13.56
2022-10-26T07:04:51.597Z,13.37
2022-10-26T07:07:53.779Z,13.57
2022-10-26T07:10:55.928Z,13.49
2022-10-26T07:13:57.956Z,13.35
2022-10-26T07:17:00.100Z,13.22
2022-10-26T07:20:02.118Z,13.42
2022-10-26T07:23:06.904Z,13.08
2022-10-26T07:26:08.940Z,13.20
2022-10-26T07:29:11.002Z,13.22
2022-10-26T07:32:13.029Z,13.40
2022-10-26T07:35:15.171Z,13.37
2022-10-26T07:38:17.222Z,13.34
2022-10-26T07:41:19.439Z,13.36
2022-10-26T07:44:21.519Z,13.29
2022-10-26T07:47:23.583Z,13.43
2022-10-26T07:50:25.794Z,13.28
2022-10-26T07:53:28.139Z,13.52
2022-10-26T07:56:30.343Z,13.54
2022-10-26T07:59:32.503Z,13.86
2022-10-26T08:02:34.706Z,13.77
2022-10-26T08:05:36.746Z,13.77
2022-10-26T08:08:40.651Z,13.76
2022-10-26T08:11:45.448Z,13.98
2022-10-26T08:14:48.579Z,14.10
2022-10-26T08:17:50.846Z,14.23
2022-10-26T08:20:53.312Z,14.23
2022-10-26T08:23:55.478Z,14.47
2022-10-26T08:26:57.545Z,14.45
2022-10-26T08:29:59.591Z,14.83
2022-10-26T08:33:06.657Z,14.53
2022-10-26T08:36:08.874Z,14.86
2022-10-26T08:39:10.920Z,15.07
2022-10-26T08:42:37.600Z,14.65
2022-10-26T08:45:41.440Z,14.96
2022-10-26T08:48:52.895Z,14.81
2022-10-26T08:51:58.123Z,14.86
2022-10-26T08:55:00.183Z,14.99
2022-10-26T08:58:02.265Z,14.84
2022-10-26T09:01:05.474Z,14.81
2022-10-26T09:04:13.371Z,14.58
2022-10-26T09:07:36.651Z,14.64
2022-10-26T09:10:57.618Z,14.39
2022-10-26T09:14:40.674Z,14.52
2022-10-26T09:18:19.606Z,14.50
2022-10-26T09:21:43.638Z,14.97
2022-10-26T09:24:53.363Z,15.21
2022-10-26T09:28:01.453Z,15.26
2022-10-26T09:31:04.207Z,15.35
2022-10-26T09:34:06.635Z,15.17
2022-10-26T09:37:38.423Z,15.68
2022-10-26T09:41:08.759Z,16.46
2022-10-26T09:44:55.085Z,16.48
2022-10-26T09:48:03.970Z,16.62
2022-10-26T09:51:08.665Z,16.84
2022-10-26T09:54:18.925Z,16.31
2022-10-26T09:57:21.017Z,16.31
2022-10-26T10:00:25.189Z,16.29
2022-10-26T10:03:29.607Z,16.05
2022-10-26T10:06:31.671Z,16.33
2022-10-26T10:09:33.701Z,16.22
2022-10-26T10:12:35.771Z,16.39
2022-10-26T10:15:37.823Z,16.11
2022-10-26T10:18:41.425Z,15.75
2022-10-26T10:21:49.219Z,15.58
2022-10-26T10:24:55.837Z,15.72
2022-10-26T10:27:57.869Z,16.01
2022-10-26T10:31:03.355Z,16.09
2022-10-26T10:34:16.850Z,15.78
2022-10-26T10:37:44.326Z,15.17
2022-10-26T10:40:59.708Z,15.55
2022-10-26T10:44:23.850Z,16.23
2022-10-26T10:47:34.092Z,15.89
2022-10-26T10:50:36.539Z,15.98
2022-10-26T10:53:44.877Z,16.72
2022-10-26T10:57:07.794Z,16.56
2022-10-26T11:00:10.571Z,16.74
2022-10-26T11:03:38.266Z,16.56
2022-10-26T11:06:40.291Z,16.30
2022-10-26T11:09:43.626Z,15.89
2022-10-26T11:12:59.937Z,15.82
2022-10-26T11:16:11.945Z,16.15
2022-10-26T11:19:24.452Z,16.07
2022-10-26T11:22:37.339Z,16.24
2022-10-26T11:25:50.226Z,15.73
2022-10-26T11:29:04.924Z,15.32
2022-10-26T11:32:40.249Z,15.61
2022-10-26T11:35:55.157Z,15.75
2022-10-26T11:39:44.294Z,17.27
2022-10-26T11:43:18.085Z,17.70
2022-10-26T11:46:50.447Z,17.40
2022-10-26T11:50:12.191Z,17.11
2022-10-26T11:53:31.989Z,18.08
2022-10-26T11:56:44.308Z,17.55
2022-10-26T11:59:50.990Z,18.79
2022-10-26T12:03:08.644Z,18.05
2022-10-26T12:06:10.678Z,17.82
2022-10-26T12:09:26.552Z,17.89
2022-10-26T12:13:08.454Z,18.57
2022-10-26T12:17:06.578Z,18.82
2022-10-26T12:20:32.650Z,17.74
2022-10-26T12:24:02.418Z,18.72
2022-10-26T12:27:05.847Z,18.86
2022-10-26T12:30:17.604Z,19.26
2022-10-26T12:33:29.895Z,18.47
2022-10-26T12:36:56.616Z,19.57
2022-10-26T12:40:32.722Z,19.66
2022-10-26T12:43:39.465Z,19.64
2022-10-26T12:46:42.123Z,18.37
2022-10-26T12:50:07.232Z,17.82
2022-10-26T12:53:14.049Z,18.91
2022-10-26T12:56:16.794Z,18.00
2022-10-26T12:59:33.726Z,17.11
2022-10-26T13:03:28.941Z,16.90
2022-10-26T13:06:48.318Z,17.08
2022-10-26T13:10:12.602Z,16.70
2022-10-26T13:13:22.827Z,16.87
2022-10-26T13:16:26.295Z,16.45
2022-10-26T13:19:45.015Z,16.43
2022-10-26T13:22:47.701Z,16.68
2022-10-26T13:26:07.909Z,15.87
2022-10-26T13:29:09.952Z,15.57
2022-10-26T13:32:12.191Z,15.89
2022-10-26T13:35:14.578Z,16.38
2022-10-26T13:38:19.163Z,17.13
2022-10-26T13:41:34.190Z,16.06
2022-10-26T13:44:36.113Z,15.93
2022-10-26T13:48:06.305Z,16.25
2022-10-26T13:51:21.165Z,17.12
2022-10-26T13:54:40.057Z,16.95
2022-10-26T13:58:09.638Z,16.48
2022-10-26T14:01:16.698Z,16.70
2022-10-26T14:04:29.073Z,16.38
2022-10-26T14:08:03.635Z,16.75
2022-10-26T14:11:05.873Z,17.64
2022-10-26T14:14:13.631Z,16.41
2022-10-26T14:17:22.964Z,19.50
2022-10-26T14:20:25.597Z,16.20
2022-10-26T14:23:38.167Z,15.75
2022-10-26T14:26:41.042Z,15.66
2022-10-26T14:29:46.902Z,15.46
2022-10-26T14:32:53.031Z,15.59
2022-10-26T14:35:55.330Z,16.32
2022-10-26T14:39:05.565Z,16.28
2022-10-26T14:42:40.631Z,18.95
2022-10-26T14:45:49.536Z,21.00
2022-10-26T14:48:59.445Z,21.07
2022-10-26T14:52:06.256Z,21.34
2022-10-26T14:55:14.598Z,23.30
2022-10-26T14:58:30.551Z,23.68
2022-10-26T15:01:35.674Z,22.57
2022-10-26T15:04:40.614Z,22.31
2022-10-26T15:07:44.619Z,22.49
2022-10-26T15:10:47.528Z,21.22
2022-10-26T15:13:49.609Z,17.41
2022-10-26T15:16:56.926Z,17.95
2022-10-26T15:20:03.749Z,16.74
2022-10-26T15:23:06.156Z,16.62
2022-10-26T15:26:10.684Z,16.28
2022-10-26T15:29:45.461Z,16.25
2022-10-26T15:32:47.690Z,15.70
2022-10-26T15:35:49.814Z,16.11
2022-10-26T15:38:52.100Z,15.77
2022-10-26T15:41:54.417Z,15.51
2022-10-26T15:44:56.499Z,15.47
2022-10-26T15:47:59.634Z,15.10
2022-10-26T15:51:01.670Z,15.21
2022-10-26T15:54:04.681Z,14.97
2022-10-26T15:57:09.081Z,14.90
2022-10-26T16:00:16.089Z,14.99
2022-10-26T16:03:23.160Z,15.00
2022-10-26T16:06:34.984Z,15.13
2022-10-26T16:09:37.077Z,14.71
2022-10-26T16:12:39.369Z,14.79
2022-10-26T16:15:41.720Z,14.85
2022-10-26T16:18:44.057Z,14.54
2022-10-26T16:21:46.163Z,14.46
2022-10-26T16:24:48.255Z,14.58
2022-10-26T16:27:50.817Z,14.67
2022-10-26T16:30:59.270Z,14.52
2022-10-26T16:34:04.102Z,14.05
2022-10-26T16:37:06.582Z,14.23
2022-10-26T16:40:09.315Z,13.98
2022-10-26T16:43:11.556Z,13.86
2022-10-26T16:46:18.913Z,13.84
2022-10-26T16:49:20.974Z,13.93
2022-10-26T16:52:23.013Z,13.90
2022-10-26T16:55:25.112Z,14.02
2022-10-26T16:58:27.158Z,13.87
2022-10-26T17:01:29.452Z,14.00
2022-10-26T17:04:31.594Z,13.93
2022-10-26T17:07:33.694Z,13.82
2022-10-26T17:10:35.778Z,14.20
2022-10-26T17:13:38.523Z,13.91
2022-10-26T17:16:40.578Z,14.03
2022-10-26T17:19:42.708Z,14.07
2022-10-26T17:22:44.833Z,13.91
2022-10-26T17:25:47.025Z,14.03
2022-10-26T17:28:53.495Z,13.82
2022-10-26T17:31:55.595Z,13.83
2022-10-26T17:34:57.687Z,14.05
2022-10-26T17:37:59.939Z,13.67
2022-10-26T17:41:08.015Z,13.66
2022-10-26T17:44:10.083Z,13.75
2022-10-26T17:47:12.196Z,13.59
2022-10-26T17:50:14.273Z,13.76
2022-10-26T17:53:16.303Z,13.59
2022-10-26T17:56:26.772Z,13.61
2022-10-26T17:59:29.024Z,13.63
2022-10-26T18:02:31.419Z,13.59
2022-10-26T18:05:33.638Z,13.73
2022-10-26T18:08:39.390Z,13.51
2022-10-26T18:11:41.416Z,13.60
2022-10-26T18:14:43.571Z,13.69
2022-10-26T18:17:49.843Z,13.64
2022-10-26T18:20:51.901Z,13.61
2022-10-26T18:23:54.268Z,13.80
2022-10-26T18:26:56.398Z,13.34
2022-10-26T18:29:58.443Z,13.34
2022-10-26T18:33:00.631Z,13.55
2022-10-26T18:36:10.082Z,13.75
2022-10-26T18:39:12.235Z,13.77
2022-10-26T18:42:14.544Z,13.78
2022-10-26T18:45:16.808Z,13.59
2022-10-26T18:48:19.170Z,13.64
2022-10-26T18:51:28.734Z,13.68
2022-10-26T18:54:31.774Z,13.43
2022-10-26T18:57:34.292Z,13.62
2022-10-26T19:00:40.044Z,13.63
2022-10-26T19:03:42.342Z,13.67
2022-10-26T19:06:47.401Z,13.60
2022-10-26T19:09:49.532Z,13.82
2022-10-26T19:12:51.922Z,13.56
2022-10-26T19:16:21.702Z,13.60
2022-10-26T19:19:29.022Z,13.78
2022-10-26T19:22:31.171Z,13.64
2022-10-26T19:25:33.269Z,13.62
2022-10-26T19:28:36.349Z,13.94
2022-10-26T19:31:38.471Z,13.64
2022-10-26T19:34:41.112Z,13.89
2022-10-26T19:37:43.322Z,13.85
2022-10-26T19:40:45.483Z,13.85
2022-10-26T19:43:47.624Z,13.96
2022-10-26T19:46:49.770Z,13.92
2022-10-26T19:49:51.806Z,14.23
2022-10-26T19:52:53.858Z,13.88
2022-10-26T19:55:58.027Z,13.88
2022-10-26T19:59:00.997Z,13.79
2022-10-26T20:02:03.056Z,13.69
2022-10-26T20:05:05.559Z,13.82
2022-10-26T20:08:08.445Z,13.92
2022-10-26T20:11:14.634Z,13.87
2022-10-26T20:14:17.913Z,13.58
2022-10-26T20:17:19.952Z,13.66
2022-10-26T20:20:21.984Z,13.98
2022-10-26T20:23:24.119Z,14.01
2022-10-26T20:26:28.233Z,13.92
2022-10-26T20:29:30.744Z,13.92
2022-10-26T20:32:32.782Z,13.43
2022-10-26T20:35:34.802Z,14.02
2022-10-26T20:38:37.172Z,13.33
2022-10-26T20:41:43.386Z,13.38
2022-10-26T20:44:45.430Z,13.02
2022-10-26T20:47:48.055Z,13.17
2022-10-26T20:50:55.336Z,13.07
2022-10-26T20:54:37.956Z,13.18
2022-10-26T20:57:39.999Z,13.09
2022-10-26T21:00:46.615Z,13.19
2022-10-26T21:03:48.707Z,13.25
2022-10-26T21:06:50.797Z,13.20
2022-10-26T21:09:52.972Z,13.11
2022-10-26T21:12:55.021Z,13.10
2022-10-26T21:15:57.082Z,13.08
2022-10-26T21:19:00.303Z,13.15
2022-10-26T21:22:02.671Z,13.41
2022-10-26T21:25:05.052Z,13.62
2022-10-26T21:28:07.096Z,14.22
2022-10-26T21:31:12.209Z,14.22
2022-10-26T21:34:14.306Z,14.56
2022-10-26T21:37:16.370Z,14.29
2022-10-26T21:40:18.399Z,14.45
2022-10-26T21:43:20.449Z,14.59
2022-10-26T21:46:22.505Z,14.14
2022-10-26T21:49:24.541Z,14.09
2022-10-26T21:52:26.690Z,14.11
2022-10-26T21:55:28.734Z,13.95
2022-10-26T21:58:30.987Z,13.96
2022-10-26T22:01:33.178Z,14.04
2022-10-26T22:04:35.301Z,13.86
2022-10-26T22:07:37.374Z,13.62
2022-10-26T22:10:39.407Z,13.90
2022-10-26T22:13:41.563Z,13.73
2022-10-26T22:16:43.722Z,13.87
2022-10-26T22:19:45.762Z,13.87
2022-10-26T22:22:47.804Z,13.95
2022-10-26T22:25:49.881Z,13.59
2022-10-26T22:28:54.715Z,13.77
2022-10-26T22:31:56.771Z,13.69
2022-10-26T22:35:10.871Z,13.63
2022-10-26T22:38:20.859Z,13.62
2022-10-26T22:41:23.396Z,13.41
2022-10-26T22:44:25.577Z,13.30
2022-10-26T22:47:28.305Z,13.24
2022-10-26T22:50:30.372Z,13.01
2022-10-26T22:53:32.522Z,12.87
2022-10-26T22:56:36.158Z,12.86
2022-10-26T22:59:38.163Z,12.83
2022-10-26T23:02:40.190Z,12.96
2022-10-26T23:05:48.366Z,12.92
2022-10-26T23:08:50.458Z,13.10
2022-10-26T23:11:52.511Z,12.96
2022-10-26T23:14:54.574Z,12.84
2022-10-26T23:17:56.654Z,12.82
2022-10-26T23:20:58.932Z,12.68
2022-10-26T23:24:01.018Z,13.01
2022-10-26T23:27:03.188Z,12.65
2022-10-26T23:30:05.950Z,12.90
2022-10-26T23:33:07.998Z,12.98
2022-10-26T23:36:10.252Z,13.17
2022-10-26T23:39:12.304Z,12.81
2022-10-26T23:42:14.364Z,12.85
2022-10-26T23:45:16.482Z,12.58
2022-10-26T23:48:19.414Z,12.50
2022-10-26T23:51:21.486Z,12.57
2022-10-26T23:54:23.567Z,12.29
2022-10-26T23:57:25.769Z,12.27
